AGGH

Honiara International Airport

Honiara, Solomon Islands
METAR AGGH 240300Z 09012KT 9999 FEW018 FEW019CB SCT030 BKN110 29/24 Q1006
Observed Flight Rules
Sep-24 @ 03:00 UTC (47 minutes ago) Visual Flight Rules
Wind Visibility Clouds
90° at 12 knots 10,000+ meters
  • Few at 1,800' AGL
  • Few at 1,900' AGL
  • Scattered at 3,000' AGL
  • Broken at 11,000' AGL
Temperatures Readings
Current 29°C / 84°F
Dewpoint 24°C / 75°F
Humidity 74%
Altimeter 29.7" Hg
Pressure 1006 hPa
Elevation 9
METAR AGGH 240300Z 09012KT 9999 FEW018 FEW019CB SCT030 BKN110 29/24 Q1006
Observed Flight Rules
Sep-24 @ 03:00 UTC
(47 minutes ago)
VFR
Wind Visibility
90° at 12 knots 10,000+ meters
Clouds
  • Few at 1,800' AGL
  • Few at 1,900' AGL
  • Scattered at 3,000' AGL
  • Broken at 11,000' AGL
Temperature Dewpoint
29°C / 84°F 24°C / 75°F
Humidity Altimeter Pressure
74% 29.7" Hg 1006 hPa